Time;durP1;ratioP1;P1;durP2;ratioP2;P2;SDS_P1;SDS_P2;PMS_P1;PMS_P2;Temp;Humidity;BMP_temperature;BMP_pressure;BME280_temperature;BME280_humidity;BME280_pressure;Samples;Min_cycle;Max_cycle;Signal;HPM_P1;HPM_P2
2021/12/19 00:02:13;;;;;;;8.93;5.37;;;2.40;66.40;;;;;;4980577;28;20047;-81
2021/12/19 00:09:49;;;;;;;8.70;4.97;;;2.40;66.40;;;;;;4982000;28;20096;-81
2021/12/19 00:12:14;;;;;;;8.30;4.60;;;2.40;66.30;;;;;;4984036;28;20113;-81
2021/12/19 00:14:40;;;;;;;8.80;5.10;;;2.40;66.40;;;;;;4980824;28;20405;-81
2021/12/19 00:17:06;;;;;;;10.13;4.23;;;2.40;66.50;;;;;;4985083;28;20385;-81
2021/12/19 00:19:32;;;;;;;9.10;5.50;;;2.40;66.80;;;;;;4985251;28;20034;-80
2021/12/19 00:21:57;;;;;;;11.37;5.93;;;2.40;66.60;;;;;;4984084;28;20037;-81
2021/12/19 00:24:24;;;;;;;10.07;5.50;;;2.40;66.50;;;;;;4966562;28;20031;-81
2021/12/19 00:26:50;;;;;;;10.17;5.60;;;2.40;66.50;;;;;;4964115;28;20030;-81
2021/12/19 00:29:16;;;;;;;10.70;6.10;;;2.40;66.30;;;;;;4979322;28;20399;-81
2021/12/19 00:31:45;;;;;;;9.63;5.77;;;2.30;66.40;;;;;;4983669;28;20081;-81
2021/12/19 00:34:13;;;;;;;12.80;6.37;;;2.30;66.20;;;;;;4983133;28;20058;-81
2021/12/19 00:36:39;;;;;;;8.67;5.97;;;2.30;66.40;;;;;;4988773;28;20030;-81
2021/12/19 00:39:05;;;;;;;9.43;5.47;;;2.30;66.30;;;;;;4979323;28;20389;-81
2021/12/19 00:41:31;;;;;;;8.00;5.20;;;2.20;66.30;;;;;;4966216;28;20035;-81
2021/12/19 00:44:08;;;;;;;10.47;5.97;;;2.10;66.40;;;;;;4985596;28;20442;-81
2021/12/19 00:46:46;;;;;;;9.50;6.40;;;2.10;66.60;;;;;;4970882;28;20032;-81
2021/12/19 00:49:12;;;;;;;9.03;6.13;;;2.20;66.50;;;;;;4979451;28;20026;-81
2021/12/19 00:51:38;;;;;;;11.47;5.43;;;2.20;66.50;;;;;;4962469;28;20024;-81
2021/12/19 00:54:08;;;;;;;13.83;5.30;;;2.20;66.30;;;;;;4963122;28;20032;-81
2021/12/19 00:56:38;;;;;;;12.43;5.43;;;2.10;66.20;;;;;;4966022;28;20027;-81
2021/12/19 00:59:04;;;;;;;8.83;5.13;;;2.10;66.30;;;;;;4979977;28;20025;-81
2021/12/19 01:01:31;;;;;;;8.43;4.53;;;2.10;66.30;;;;;;4964405;28;20482;-80
2021/12/19 01:03:57;;;;;;;11.27;4.83;;;2.10;66.50;;;;;;4979273;28;20027;-81
2021/12/19 01:06:23;;;;;;;10.17;5.83;;;2.10;66.60;;;;;;4986208;28;20528;-80
2021/12/19 01:08:48;;;;;;;17.07;7.43;;;2.10;66.70;;;;;;4980450;28;20030;-81
2021/12/19 01:11:15;;;;;;;15.30;9.47;;;2.00;66.20;;;;;;4968695;28;20532;-81
2021/12/19 01:13:41;;;;;;;17.57;9.73;;;2.00;66.80;;;;;;4983828;28;20037;-81
2021/12/19 01:16:07;;;;;;;15.77;8.23;;;2.00;66.90;;;;;;4983105;28;20022;-81
2021/12/19 01:18:33;;;;;;;12.97;7.10;;;2.00;67.10;;;;;;4986478;28;20026;-81
2021/12/19 01:20:59;;;;;;;12.10;6.30;;;2.00;67.00;;;;;;4990956;28;20039;-81
2021/12/19 01:23:24;;;;;;;15.73;9.60;;;1.90;66.90;;;;;;4970264;28;20137;-80
2021/12/19 01:25:51;;;;;;;14.93;10.27;;;1.90;67.10;;;;;;4981415;28;20125;-81
2021/12/19 01:28:17;;;;;;;19.93;10.53;;;2.00;67.50;;;;;;5000925;28;20029;-81
2021/12/19 01:30:43;;;;;;;22.60;13.83;;;2.00;67.50;;;;;;4988457;28;20030;-81
2021/12/19 01:33:09;;;;;;;20.17;10.80;;;2.00;67.60;;;;;;4982918;28;20030;-81
2021/12/19 01:35:35;;;;;;;17.73;10.57;;;2.00;67.80;;;;;;4960498;28;20046;-81
2021/12/19 01:38:01;;;;;;;18.07;10.43;;;2.00;67.70;;;;;;4984176;28;20474;-81
2021/12/19 01:40:27;;;;;;;17.90;11.27;;;1.90;67.70;;;;;;4964502;28;20023;-80
2021/12/19 01:42:55;;;;;;;16.63;11.00;;;1.90;68.20;;;;;;4979118;28;20033;-81
2021/12/19 01:45:27;;;;;;;18.27;10.90;;;1.90;68.10;;;;;;4961319;28;20080;-81
2021/12/19 01:47:54;;;;;;;17.83;11.40;;;1.90;68.30;;;;;;4971436;28;20074;-81
2021/12/19 01:50:21;;;;;;;16.40;9.77;;;2.00;68.50;;;;;;4967605;28;20034;-81
2021/12/19 01:52:48;;;;;;;13.17;8.20;;;2.00;68.30;;;;;;4981832;28;20026;-81
2021/12/19 01:55:14;;;;;;;14.53;8.17;;;2.00;68.20;;;;;;4980444;28;20406;-81
2021/12/19 01:57:39;;;;;;;15.47;7.70;;;2.10;68.20;;;;;;4978398;28;20030;-80
2021/12/19 02:00:16;;;;;;;14.63;8.00;;;2.10;68.00;;;;;;4977680;28;20030;-81
2021/12/19 02:02:42;;;;;;;12.77;7.07;;;2.10;68.00;;;;;;4968385;28;20030;-81
2021/12/19 02:05:08;;;;;;;13.23;7.43;;;2.10;67.50;;;;;;4957613;28;20042;-81
2021/12/19 02:07:34;;;;;;;12.20;7.00;;;2.00;68.20;;;;;;4985656;28;20030;-81
2021/12/19 02:09:59;;;;;;;13.23;7.60;;;2.00;68.40;;;;;;4983686;28;20149;-81
2021/12/19 02:12:25;;;;;;;13.40;8.37;;;2.10;68.50;;;;;;4965213;28;20019;-81
2021/12/19 02:14:51;;;;;;;15.63;9.07;;;2.10;68.40;;;;;;4962590;28;20352;-81
2021/12/19 02:17:17;;;;;;;14.97;8.03;;;2.00;68.20;;;;;;4958140;28;20027;-81
2021/12/19 02:19:43;;;;;;;16.83;7.63;;;2.10;68.70;;;;;;4979452;28;20030;-81
2021/12/19 02:22:08;;;;;;;16.20;7.57;;;2.10;68.70;;;;;;4965149;28;20046;-81
2021/12/19 02:24:34;;;;;;;12.07;6.83;;;2.10;68.40;;;;;;4970280;28;20038;-81
2021/12/19 02:27:00;;;;;;;11.77;6.43;;;2.10;68.70;;;;;;4959188;28;20019;-81
2021/12/19 02:29:26;;;;;;;12.30;6.87;;;2.10;68.30;;;;;;4964648;28;20049;-81
2021/12/19 02:31:51;;;;;;;13.13;6.47;;;2.10;68.40;;;;;;4977314;28;20068;-81
2021/12/19 02:34:22;;;;;;;10.93;6.20;;;2.10;68.00;;;;;;4988424;28;20090;-81
2021/12/19 02:37:20;;;;;;;10.53;6.10;;;2.00;67.80;;;;;;4982931;28;20106;-81
2021/12/19 02:40:22;;;;;;;10.87;5.17;;;2.10;67.90;;;;;;4962903;28;20030;-81
2021/12/19 02:48:12;;;;;;;8.23;5.27;;;2.00;68.30;;;;;;4977150;28;20069;-81
2021/12/19 02:50:50;;;;;;;7.57;4.82;;;2.00;68.10;;;;;;4966734;28;20088;-81
2021/12/19 02:53:19;;;;;;;9.47;4.87;;;2.00;68.00;;;;;;4981702;28;20484;-81
2021/12/19 02:55:45;;;;;;;7.93;5.37;;;2.00;67.90;;;;;;4991467;28;20034;-78
2021/12/19 02:58:11;;;;;;;10.93;4.80;;;2.00;67.80;;;;;;4968936;28;20059;-78
2021/12/19 03:00:37;;;;;;;8.33;4.00;;;1.90;67.70;;;;;;4962537;28;20105;-78
2021/12/19 03:03:04;;;;;;;7.33;5.07;;;1.90;68.10;;;;;;4963104;28;20038;-78
2021/12/19 03:05:32;;;;;;;13.83;6.60;;;1.90;68.00;;;;;;4979711;28;20470;-78
2021/12/19 03:08:00;;;;;;;7.43;4.80;;;2.00;67.70;;;;;;4983830;28;20030;-78
2021/12/19 03:18:14;;;;;;;5.43;3.30;;;1.80;68.20;;;;;;4983828;28;20037;-79
2021/12/19 03:20:41;;;;;;;8.20;4.43;;;1.90;68.60;;;;;;4980338;28;20406;-79
2021/12/19 03:23:11;;;;;;;5.60;3.50;;;1.90;68.00;;;;;;4965278;28;20050;-79
2021/12/19 03:25:37;;;;;;;7.87;3.87;;;1.90;68.00;;;;;;4961192;28;20542;-80
2021/12/19 03:28:05;;;;;;;7.27;4.43;;;1.90;68.20;;;;;;4957537;28;20027;-79
2021/12/19 03:30:33;;;;;;;8.43;4.67;;;2.00;68.00;;;;;;4974354;28;20030;-79
2021/12/19 03:32:59;;;;;;;11.13;5.90;;;1.90;67.60;;;;;;4962058;28;20034;-79
2021/12/19 03:35:25;;;;;;;12.47;7.10;;;1.90;67.80;;;;;;4960232;28;20038;-79
2021/12/19 03:37:52;;;;;;;18.23;9.03;;;1.90;67.80;;;;;;4982177;28;20046;-79
2021/12/19 03:40:23;;;;;;;10.30;7.13;;;2.00;67.70;;;;;;4984902;28;20129;-79
2021/12/19 03:42:52;;;;;;;12.97;7.67;;;2.00;67.60;;;;;;4959953;28;20038;-79
2021/12/19 03:45:21;;;;;;;9.00;5.50;;;2.00;67.40;;;;;;4957416;28;20039;-80
2021/12/19 03:47:47;;;;;;;7.43;4.30;;;2.00;67.50;;;;;;4976815;28;20056;-79
2021/12/19 03:50:18;;;;;;;13.50;5.03;;;2.00;67.40;;;;;;4978627;28;20035;-79
2021/12/19 03:52:45;;;;;;;8.27;4.87;;;2.00;67.30;;;;;;4968443;28;20946;-79
2021/12/19 03:55:10;;;;;;;5.67;3.30;;;2.00;67.30;;;;;;4960404;28;20030;-79
2021/12/19 03:57:36;;;;;;;6.40;3.37;;;1.90;67.50;;;;;;4964302;28;20525;-79
2021/12/19 04:00:06;;;;;;;10.83;4.80;;;1.90;67.80;;;;;;4966387;28;20119;-80
2021/12/19 04:02:32;;;;;;;7.70;4.60;;;2.00;67.80;;;;;;4970148;28;20038;-79
2021/12/19 04:04:59;;;;;;;7.50;4.63;;;2.00;67.90;;;;;;4982534;28;20094;-79
2021/12/19 04:07:26;;;;;;;9.00;4.70;;;2.10;67.90;;;;;;4982995;28;20034;-79
2021/12/19 04:09:52;;;;;;;10.20;5.77;;;2.00;67.60;;;;;;4985871;28;20433;-79
2021/12/19 04:12:18;;;;;;;10.23;5.30;;;2.10;67.90;;;;;;4981525;28;20030;-80
2021/12/19 04:14:44;;;;;;;12.10;6.73;;;2.10;68.20;;;;;;4985984;28;20045;-79
2021/12/19 04:17:10;;;;;;;13.07;6.93;;;2.20;68.00;;;;;;4980702;28;20475;-79
2021/12/19 04:19:36;;;;;;;12.90;6.70;;;2.20;67.50;;;;;;4988838;28;20084;-79
2021/12/19 04:22:02;;;;;;;12.07;6.27;;;2.10;67.20;;;;;;4944610;28;1183398;-79
2021/12/19 04:24:28;;;;;;;14.33;7.73;;;2.10;67.30;;;;;;4985003;28;20035;-79
2021/12/19 04:26:55;;;;;;;16.83;8.30;;;2.10;67.40;;;;;;4971965;28;20033;-79
2021/12/19 04:29:21;;;;;;;12.73;8.97;;;2.10;67.30;;;;;;4967059;28;20038;-79
2021/12/19 04:31:46;;;;;;;15.97;9.33;;;2.10;67.40;;;;;;4960455;28;20027;-80
2021/12/19 04:34:13;;;;;;;16.63;10.00;;;2.10;67.40;;;;;;4969286;28;20022;-79
2021/12/19 04:36:42;;;;;;;19.63;9.93;;;2.10;67.30;;;;;;4963305;28;20023;-79
2021/12/19 04:43:11;;;;;;;18.87;11.23;;;2.00;67.30;;;;;;4964361;28;20077;-79
2021/12/19 05:01:35;;;;;;;9.37;4.97;;;1.90;67.20;;;;;;4985051;28;20565;-79
2021/12/19 05:16:35;;;;;;;11.43;6.70;;;1.80;67.20;;;;;;4982709;28;20027;-79
2021/12/19 05:19:07;;;;;;;14.10;6.90;;;1.70;67.10;;;;;;4970984;28;20038;-80
2021/12/19 05:21:36;;;;;;;9.70;6.10;;;1.70;67.60;;;;;;4985731;28;20367;-79
2021/12/19 05:26:27;;;;;;;10.17;6.67;;;1.70;67.50;;;;;;4988763;28;20477;-79
2021/12/19 05:28:53;;;;;;;12.50;7.50;;;1.70;67.20;;;;;;4971730;28;20080;-79
2021/12/19 05:31:20;;;;;;;17.43;9.37;;;1.60;67.20;;;;;;4979823;28;20030;-79
2021/12/19 05:33:47;;;;;;;14.70;9.63;;;1.60;67.50;;;;;;4985805;28;20046;-79
2021/12/19 05:46:58;;;;;;;13.30;7.07;;;1.50;67.50;;;;;;4980215;28;20173;-79
2021/12/19 05:49:24;;;;;;;11.97;7.20;;;1.50;67.70;;;;;;4980891;28;20026;-79
2021/12/19 05:51:50;;;;;;;11.17;6.63;;;1.50;67.50;;;;;;4985043;28;20371;-79
2021/12/19 05:54:16;;;;;;;16.40;9.53;;;1.50;67.70;;;;;;4980256;28;20030;-79
2021/12/19 05:56:43;;;;;;;11.83;7.60;;;1.50;67.60;;;;;;4982141;28;20034;-79
2021/12/19 05:59:09;;;;;;;13.90;8.40;;;1.50;67.20;;;;;;4983394;28;20033;-79
2021/12/19 06:01:36;;;;;;;13.73;9.70;;;1.50;67.40;;;;;;4982557;28;20030;-79
2021/12/19 06:04:02;;;;;;;16.00;9.40;;;1.50;67.50;;;;;;4970046;28;20034;-79
2021/12/19 06:06:28;;;;;;;17.23;10.80;;;1.50;67.50;;;;;;4982660;28;20041;-79
2021/12/19 06:08:54;;;;;;;17.30;11.37;;;1.50;67.70;;;;;;4978582;28;20434;-80
2021/12/19 06:11:20;;;;;;;19.13;10.63;;;1.50;67.50;;;;;;4971270;28;20030;-79
2021/12/19 06:13:46;;;;;;;16.10;9.40;;;1.50;67.70;;;;;;4966248;28;20034;-79
2021/12/19 06:16:11;;;;;;;17.37;8.87;;;1.50;67.50;;;;;;4988988;28;20027;-79
2021/12/19 06:18:37;;;;;;;13.00;8.50;;;1.40;67.40;;;;;;4988980;28;20019;-79
2021/12/19 06:21:04;;;;;;;12.60;8.20;;;1.50;67.60;;;;;;4992520;28;20034;-79
2021/12/19 06:23:30;;;;;;;13.23;8.83;;;1.50;67.40;;;;;;4988785;28;20030;-79
2021/12/19 06:25:56;;;;;;;14.57;8.90;;;1.40;67.30;;;;;;4973561;28;20475;-79
2021/12/19 06:28:22;;;;;;;14.90;8.30;;;1.40;67.40;;;;;;4974821;28;20385;-79
2021/12/19 06:30:48;;;;;;;18.17;11.33;;;1.40;67.50;;;;;;4975115;28;20394;-79
2021/12/19 06:33:15;;;;;;;14.43;8.50;;;1.40;67.50;;;;;;4984329;28;20027;-79
2021/12/19 06:35:41;;;;;;;12.60;8.07;;;1.40;67.70;;;;;;4965112;28;20027;-79
2021/12/19 06:38:07;;;;;;;13.73;8.17;;;1.40;67.90;;;;;;4971942;28;20026;-78
2021/12/19 06:40:34;;;;;;;23.20;9.97;;;1.50;67.90;;;;;;4966609;28;20106;-79
2021/12/19 06:43:00;;;;;;;15.10;8.10;;;1.50;68.00;;;;;;4984206;28;20036;-79
2021/12/19 06:45:25;;;;;;;13.70;8.80;;;1.40;67.90;;;;;;4987955;28;20018;-79
2021/12/19 06:47:51;;;;;;;14.87;8.67;;;1.30;67.30;;;;;;4966623;28;20084;-79
2021/12/19 06:50:18;;;;;;;21.23;12.50;;;1.30;67.80;;;;;;4985640;28;20088;-79
2021/12/19 06:52:46;;;;;;;13.73;8.43;;;1.20;67.70;;;;;;4986355;28;20497;-79
2021/12/19 06:55:13;;;;;;;15.37;7.87;;;1.20;67.90;;;;;;4970716;28;20114;-79
2021/12/19 06:57:39;;;;;;;13.20;6.87;;;1.20;68.10;;;;;;4980773;28;20156;-79
2021/12/19 07:00:09;;;;;;;14.53;8.43;;;1.20;68.00;;;;;;4967803;28;20494;-79
2021/12/19 07:02:34;;;;;;;19.17;9.27;;;1.20;68.00;;;;;;4971548;28;20030;-79
2021/12/19 07:05:00;;;;;;;24.27;12.97;;;1.20;68.00;;;;;;4971635;28;20026;-79
2021/12/19 07:07:26;;;;;;;24.50;14.53;;;1.20;68.00;;;;;;4988355;28;20022;-79
2021/12/19 07:09:52;;;;;;;16.40;10.63;;;1.30;67.90;;;;;;4990568;28;20462;-80
2021/12/19 07:12:19;;;;;;;22.83;9.97;;;1.20;68.00;;;;;;4972142;28;20046;-80
2021/12/19 07:14:45;;;;;;;19.33;10.97;;;1.20;68.40;;;;;;4965523;28;20058;-80
2021/12/19 07:17:11;;;;;;;18.20;10.47;;;1.30;68.30;;;;;;4962174;28;20505;-80
2021/12/19 07:19:37;;;;;;;20.83;11.30;;;1.30;68.20;;;;;;4976641;28;20027;-80
2021/12/19 07:22:03;;;;;;;19.00;11.00;;;1.30;67.90;;;;;;4964958;28;20176;-80
2021/12/19 07:24:29;;;;;;;18.23;11.60;;;1.30;68.00;;;;;;4988540;28;20117;-79
2021/12/19 07:26:55;;;;;;;20.13;12.50;;;1.30;68.30;;;;;;4960614;28;20114;-80
2021/12/19 07:29:21;;;;;;;21.77;10.93;;;1.20;68.30;;;;;;4977895;28;20390;-79
2021/12/19 07:31:47;;;;;;;17.60;11.80;;;1.20;68.50;;;;;;4961864;28;20031;-80
2021/12/19 07:34:13;;;;;;;19.47;11.03;;;1.30;68.50;;;;;;4981423;28;20446;-79
2021/12/19 07:36:43;;;;;;;20.40;11.10;;;1.30;68.70;;;;;;4959722;28;20026;-79
2021/12/19 07:39:21;;;;;;;28.17;12.70;;;1.30;68.50;;;;;;4963718;28;20597;-80
2021/12/19 07:41:46;;;;;;;18.53;12.70;;;1.30;68.70;;;;;;4976454;28;20117;-80
2021/12/19 07:44:12;;;;;;;22.10;12.40;;;1.30;68.80;;;;;;4982134;28;20458;-79
2021/12/19 07:46:38;;;;;;;23.73;15.60;;;1.30;68.70;;;;;;4965716;28;20035;-80
2021/12/19 07:49:04;;;;;;;34.77;17.63;;;1.30;68.80;;;;;;4974899;28;20370;-80
2021/12/19 07:51:30;;;;;;;21.17;12.73;;;1.30;68.70;;;;;;4974172;28;20482;-80
2021/12/19 07:53:55;;;;;;;25.20;14.37;;;1.30;68.70;;;;;;4958424;28;20462;-80
2021/12/19 07:56:21;;;;;;;22.70;11.77;;;1.30;68.70;;;;;;4969015;28;20034;-80
2021/12/19 07:58:47;;;;;;;18.93;11.73;;;1.30;68.80;;;;;;4975992;28;20480;-80
2021/12/19 08:01:12;;;;;;;18.87;11.43;;;1.30;68.90;;;;;;4983997;28;20027;-80
2021/12/19 08:03:38;;;;;;;16.40;10.77;;;1.40;68.80;;;;;;4969887;28;20098;-80
2021/12/19 08:06:04;;;;;;;17.07;10.03;;;1.40;68.60;;;;;;4974264;28;20026;-80
2021/12/19 08:08:32;;;;;;;22.03;12.40;;;1.40;68.60;;;;;;4984804;28;20030;-80
2021/12/19 08:13:43;;;;;;;31.57;15.50;;;1.50;69.00;;;;;;4975471;28;20183;-80
2021/12/19 08:16:09;;;;;;;23.53;13.30;;;1.60;68.60;;;;;;4964003;28;20121;-80
2021/12/19 08:18:35;;;;;;;21.53;12.93;;;1.60;68.70;;;;;;4976180;28;20038;-80
2021/12/19 08:21:01;;;;;;;21.37;13.30;;;1.60;68.70;;;;;;4958439;28;20478;-79
2021/12/19 08:23:27;;;;;;;27.17;15.03;;;1.60;68.80;;;;;;4978482;28;20043;-80
2021/12/19 08:25:53;;;;;;;19.63;10.77;;;1.60;68.80;;;;;;4979830;28;22339;-80
2021/12/19 08:28:19;;;;;;;22.93;13.20;;;1.60;68.80;;;;;;4977171;28;20081;-79
2021/12/19 08:30:45;;;;;;;34.37;18.07;;;1.70;69.00;;;;;;4976598;28;20058;-79
2021/12/19 08:33:11;;;;;;;24.00;14.87;;;1.80;69.30;;;;;;4962607;28;20058;-79
2021/12/19 08:35:37;;;;;;;38.63;16.97;;;1.90;69.20;;;;;;4978491;28;20030;-80
2021/12/19 08:38:03;;;;;;;21.93;13.23;;;2.00;69.00;;;;;;4976410;28;23364;-80
2021/12/19 08:40:31;;;;;;;16.40;10.07;;;2.00;68.60;;;;;;4977575;28;20387;-80
2021/12/19 08:42:57;;;;;;;19.27;9.97;;;2.00;68.60;;;;;;4957897;28;20027;-79
2021/12/19 08:45:23;;;;;;;15.03;8.10;;;2.00;68.40;;;;;;4960196;28;20421;-79
2021/12/19 08:47:50;;;;;;;15.50;9.20;;;2.10;68.50;;;;;;4963379;28;20030;-79
2021/12/19 08:50:16;;;;;;;17.47;8.73;;;2.10;68.30;;;;;;4987115;28;20019;-79
2021/12/19 08:52:42;;;;;;;22.87;12.43;;;2.10;68.30;;;;;;4966831;28;20496;-79
2021/12/19 08:55:09;;;;;;;28.73;16.10;;;2.10;68.40;;;;;;4963731;28;20027;-79
2021/12/19 08:57:35;;;;;;;39.43;20.63;;;2.20;68.50;;;;;;4980537;28;20390;-80
2021/12/19 09:00:04;;;;;;;26.27;16.63;;;2.20;68.40;;;;;;4988651;28;20113;-79
2021/12/19 09:02:30;;;;;;;20.80;12.60;;;2.20;68.40;;;;;;4965663;28;20039;-79
2021/12/19 09:04:56;;;;;;;23.73;14.37;;;2.30;68.30;;;;;;4980430;28;20154;-79
2021/12/19 09:07:22;;;;;;;23.90;12.00;;;2.30;68.30;;;;;;4966527;28;20022;-80
2021/12/19 09:09:48;;;;;;;19.90;12.37;;;2.20;68.20;;;;;;4973078;28;20026;-80
2021/12/19 09:12:15;;;;;;;21.97;14.53;;;2.30;68.50;;;;;;4981508;28;20019;-80
2021/12/19 09:14:41;;;;;;;21.40;13.90;;;2.40;68.50;;;;;;4980751;28;20522;-79
2021/12/19 09:17:07;;;;;;;18.93;10.83;;;2.50;68.60;;;;;;4983898;28;20030;-80
2021/12/19 09:19:32;;;;;;;19.23;13.13;;;2.60;68.30;;;;;;4961611;28;20031;-80
2021/12/19 09:21:58;;;;;;;11.00;6.80;;;2.70;68.40;;;;;;4984694;28;20031;-79
2021/12/19 09:24:24;;;;;;;16.53;7.33;;;3.00;68.30;;;;;;4983460;28;20509;-80
2021/12/19 09:26:50;;;;;;;15.23;9.33;;;3.10;68.10;;;;;;4971958;28;20018;-80
2021/12/19 09:29:15;;;;;;;22.67;10.67;;;3.20;68.10;;;;;;4992290;28;20034;-80
2021/12/19 09:31:41;;;;;;;20.70;9.43;;;3.40;68.20;;;;;;4973551;28;20041;-80
2021/12/19 09:34:07;;;;;;;19.53;9.40;;;3.50;67.70;;;;;;4993684;28;20023;-80
2021/12/19 09:36:34;;;;;;;15.70;8.40;;;3.60;67.70;;;;;;4983060;28;20027;-80
2021/12/19 09:39:01;;;;;;;14.80;8.33;;;3.60;67.40;;;;;;4988144;28;20030;-80
2021/12/19 09:41:32;;;;;;;13.63;7.20;;;3.70;67.30;;;;;;4990282;28;20042;-80
2021/12/19 09:44:02;;;;;;;12.57;7.90;;;3.80;67.00;;;;;;4981897;28;20022;-80
2021/12/19 09:46:36;;;;;;;17.97;9.33;;;3.80;66.60;;;;;;4983732;28;20386;-80
2021/12/19 09:49:08;;;;;;;11.90;7.40;;;3.90;66.60;;;;;;4963927;28;20022;-80
2021/12/19 09:51:34;;;;;;;11.37;8.20;;;4.00;66.30;;;;;;4986880;28;20030;-80
2021/12/19 09:54:00;;;;;;;13.10;8.23;;;4.00;66.40;;;;;;4984278;28;20270;-80
2021/12/19 09:56:26;;;;;;;10.37;7.37;;;4.00;66.30;;;;;;4987259;28;20031;-80
2021/12/19 09:58:53;;;;;;;10.83;7.37;;;4.00;66.10;;;;;;4970685;28;20096;-80
2021/12/19 10:01:19;;;;;;;11.30;6.90;;;4.20;65.90;;;;;;4981829;28;20459;-80
2021/12/19 10:03:45;;;;;;;14.40;6.63;;;4.30;65.70;;;;;;4966174;28;20109;-79
2021/12/19 10:06:23;;;;;;;10.70;5.73;;;4.50;65.30;;;;;;4964663;28;20117;-80
2021/12/19 10:09:06;;;;;;;12.67;6.20;;;4.70;64.90;;;;;;4977440;28;20031;-80
2021/12/19 10:11:55;;;;;;;13.05;6.97;;;4.90;64.70;;;;;;4967263;28;20054;-79
2021/12/19 10:14:35;;;;;;;19.17;7.60;;;5.20;64.80;;;;;;4978678;28;20542;-80
2021/12/19 10:17:07;;;;;;;10.93;7.50;;;5.50;64.40;;;;;;4984364;28;20018;-80
2021/12/19 10:19:47;;;;;;;9.13;6.20;;;5.60;63.60;;;;;;4969191;28;20035;-80
2021/12/19 10:22:29;;;;;;;10.13;6.00;;;5.70;62.90;;;;;;4985453;28;20050;-80
2021/12/19 10:24:58;;;;;;;9.88;6.18;;;5.90;62.60;;;;;;4985097;28;20045;-80
2021/12/19 10:27:39;;;;;;;10.40;5.77;;;6.10;62.30;;;;;;4982034;28;20030;-80
2021/12/19 10:30:46;;;;;;;10.77;6.00;;;6.40;61.70;;;;;;4962783;28;20041;-80
2021/12/19 10:33:20;;;;;;;9.50;5.23;;;6.70;61.10;;;;;;4981026;28;20118;-80
2021/12/19 10:35:50;;;;;;;6.90;4.70;;;7.00;60.60;;;;;;4968862;28;20034;-80
2021/12/19 10:38:24;;;;;;;7.73;4.40;;;7.10;59.70;;;;;;4986902;28;20061;-80
2021/12/19 10:40:56;;;;;;;8.20;4.27;;;7.40;59.60;;;;;;4982826;28;20034;-80
2021/12/19 10:43:26;;;;;;;12.63;7.03;;;7.60;59.20;;;;;;4964523;28;20083;-80
2021/12/19 10:45:55;;;;;;;12.17;6.77;;;7.90;59.50;;;;;;4971757;28;20035;-80
2021/12/19 10:48:31;;;;;;;13.07;7.67;;;8.10;58.70;;;;;;4983989;28;20019;-80
2021/12/19 10:51:12;;;;;;;10.10;6.47;;;8.10;58.20;;;;;;4983764;28;20101;-80
2021/12/19 10:53:49;;;;;;;8.40;5.37;;;8.10;58.20;;;;;;4981458;28;20030;-80
2021/12/19 10:56:33;;;;;;;8.67;5.00;;;8.10;57.90;;;;;;4968174;28;20113;-80
2021/12/19 10:59:00;;;;;;;8.70;4.90;;;8.00;57.50;;;;;;4962612;28;20442;-80
2021/12/19 11:01:29;;;;;;;12.47;7.13;;;8.00;57.30;;;;;;4965791;28;20142;-80
2021/12/19 11:04:07;;;;;;;10.93;5.40;;;8.00;57.10;;;;;;4978867;28;20097;-80
2021/12/19 11:06:45;;;;;;;10.97;4.90;;;8.20;57.00;;;;;;4982630;28;20798;-81
2021/12/19 11:09:12;;;;;;;7.57;4.30;;;8.30;56.70;;;;;;4963879;28;20093;-80
2021/12/19 11:11:42;;;;;;;11.47;5.77;;;8.50;56.70;;;;;;4970400;28;20089;-80
2021/12/19 11:14:10;;;;;;;9.03;4.70;;;8.70;56.00;;;;;;4977697;28;20058;-81
2021/12/19 11:16:36;;;;;;;5.53;3.50;;;8.70;55.40;;;;;;4982083;28;20486;-80
2021/12/19 11:19:02;;;;;;;7.53;3.93;;;8.70;55.20;;;;;;4964788;28;20034;-81
2021/12/19 11:21:33;;;;;;;10.00;4.63;;;8.70;54.70;;;;;;4971933;28;20044;-80
2021/12/19 11:24:00;;;;;;;5.07;3.57;;;8.60;54.70;;;;;;4987747;28;20058;-81
2021/12/19 11:26:27;;;;;;;4.90;3.23;;;8.60;54.60;;;;;;4986259;28;20023;-80
2021/12/19 11:28:55;;;;;;;9.07;4.20;;;8.60;54.20;;;;;;4970253;28;20578;-80
2021/12/19 11:31:24;;;;;;;4.97;3.67;;;8.60;54.30;;;;;;4978009;28;20141;-80
2021/12/19 11:34:04;;;;;;;8.17;4.67;;;8.60;54.00;;;;;;4977603;28;20034;-80
2021/12/19 11:36:34;;;;;;;10.67;5.60;;;8.60;54.00;;;;;;4979344;28;20522;-80
2021/12/19 11:39:05;;;;;;;11.60;3.27;;;8.60;54.40;;;;;;4963831;28;20041;-80
2021/12/19 11:41:31;;;;;;;6.30;3.93;;;8.70;54.20;;;;;;4979675;28;20031;-80
2021/12/19 11:44:02;;;;;;;4.30;2.90;;;8.90;54.40;;;;;;4973211;28;20034;-81
2021/12/19 11:46:46;;;;;;;4.50;3.30;;;9.00;53.90;;;;;;4980068;28;20026;-80
2021/12/19 11:49:23;;;;;;;5.40;3.40;;;9.10;53.70;;;;;;4964806;28;20108;-80
2021/12/19 11:52:09;;;;;;;7.90;3.53;;;9.00;53.30;;;;;;4974258;28;20023;-80
2021/12/19 11:54:35;;;;;;;8.13;3.47;;;9.00;53.30;;;;;;4985480;28;20033;-81
2021/12/19 11:57:10;;;;;;;5.53;3.27;;;8.90;53.10;;;;;;4992303;28;20022;-81
2021/12/19 11:59:38;;;;;;;4.50;3.10;;;8.80;53.60;;;;;;4968162;28;20437;-80
2021/12/19 12:02:24;;;;;;;5.67;3.40;;;8.80;52.80;;;;;;4993325;28;20025;-81
2021/12/19 12:05:13;;;;;;;6.83;4.47;;;8.70;53.00;;;;;;4988599;28;20343;-81
2021/12/19 12:08:07;;;;;;;5.80;3.73;;;8.80;53.30;;;;;;4985180;28;20030;-80
2021/12/19 12:10:55;;;;;;;5.53;3.80;;;8.90;53.20;;;;;;4963196;28;20470;-81
2021/12/19 12:13:39;;;;;;;7.23;4.00;;;9.00;53.20;;;;;;4982598;28;20037;-80
2021/12/19 12:16:38;;;;;;;5.67;4.00;;;9.00;53.20;;;;;;4975193;28;20041;-80
2021/12/19 12:18:59;;;;;;;7.80;4.63;;;8.90;53.30;;;;;;4991718;28;20030;-81
2021/12/19 12:24:02;;;;;;;7.60;5.27;;;9.10;53.30;;;;;;4990092;28;20161;-80
2021/12/19 12:26:45;;;;;;;9.23;4.55;;;9.10;53.30;;;;;;4983338;28;20076;-81
2021/12/19 12:29:12;;;;;;;20.77;6.65;;;9.10;53.40;;;;;;4991019;28;20085;-81
2021/12/19 12:31:41;;;;;;;17.30;8.80;;;9.20;53.50;;;;;;4962879;28;20058;-80
2021/12/19 12:34:09;;;;;;;9.67;5.60;;;9.30;53.40;;;;;;4974043;28;20493;-80
2021/12/19 12:36:36;;;;;;;9.97;5.00;;;9.30;53.10;;;;;;4986036;28;20038;-80
2021/12/19 12:39:07;;;;;;;4.70;3.47;;;9.30;53.20;;;;;;4965382;28;20117;-80
2021/12/19 12:41:50;;;;;;;9.90;4.93;;;9.20;53.30;;;;;;4987974;28;20023;-80
2021/12/19 12:44:22;;;;;;;6.53;3.63;;;9.10;53.30;;;;;;4965917;28;20513;-80
2021/12/19 12:46:50;;;;;;;7.63;3.83;;;9.10;53.50;;;;;;4965825;28;20065;-80
2021/12/19 12:49:22;;;;;;;6.43;3.60;;;9.10;53.40;;;;;;4967280;28;20030;-80
2021/12/19 12:51:57;;;;;;;5.00;3.03;;;9.00;53.20;;;;;;4970028;28;20062;-81
2021/12/19 12:54:37;;;;;;;5.03;3.17;;;9.00;52.80;;;;;;4980565;28;20023;-80
2021/12/19 12:57:10;;;;;;;7.00;3.37;;;8.80;52.80;;;;;;4965224;28;20081;-80
2021/12/19 12:59:39;;;;;;;;;;;8.60;52.90;;;;;;4984478;28;20026;-81
2021/12/19 13:02:14;;;;;;;8.57;3.00;;;8.60;53.20;;;;;;4981713;28;19941;-80
2021/12/19 13:04:44;;;;;;;8.43;4.13;;;8.50;53.40;;;;;;4970380;28;20037;-80
2021/12/19 13:07:11;;;;;;;8.00;3.63;;;8.40;53.40;;;;;;4982531;28;20546;-81
2021/12/19 13:09:37;;;;;;;7.90;3.67;;;8.40;53.80;;;;;;4964616;28;20034;-81
2021/12/19 13:12:28;;;;;;;8.33;4.63;;;8.40;54.10;;;;;;4958558;28;20023;-80
2021/12/19 13:15:03;;;;;;;9.40;5.70;;;8.50;53.70;;;;;;4990160;28;20104;-80
2021/12/19 13:17:32;;;;;;;8.43;4.83;;;8.50;54.00;;;;;;4984380;28;20557;-81
2021/12/19 13:20:12;;;;;;;9.17;5.83;;;8.40;53.90;;;;;;4983404;28;20031;-80
2021/12/19 13:22:58;;;;;;;9.63;5.10;;;8.40;54.00;;;;;;4981696;28;20050;-80
2021/12/19 13:25:33;;;;;;;11.17;7.20;;;8.40;54.30;;;;;;4979428;28;20153;-80
2021/12/19 13:28:02;;;;;;;11.67;7.47;;;8.30;54.30;;;;;;4982590;28;20034;-81
2021/12/19 13:30:31;;;;;;;12.60;7.30;;;8.30;54.40;;;;;;4980707;28;20038;-81
2021/12/19 13:33:07;;;;;;;11.50;6.73;;;8.20;54.50;;;;;;4988724;28;20037;-81
2021/12/19 13:35:35;;;;;;;19.23;6.10;;;8.00;54.70;;;;;;4972795;28;20053;-81
2021/12/19 13:38:10;;;;;;;12.53;5.10;;;8.10;55.40;;;;;;4993582;28;20520;-81
2021/12/19 13:40:44;;;;;;;7.60;4.37;;;8.00;55.10;;;;;;4982312;28;20034;-81
2021/12/19 13:43:22;;;;;;;6.80;4.30;;;8.00;55.00;;;;;;4979033;28;20034;-81
2021/12/19 13:45:56;;;;;;;12.20;5.90;;;8.00;54.90;;;;;;4988698;28;20701;-81
2021/12/19 13:48:23;;;;;;;10.20;5.27;;;7.90;55.00;;;;;;4979008;28;20114;-81
2021/12/19 13:51:03;;;;;;;11.93;4.30;;;7.80;55.00;;;;;;4965443;28;20451;-81
2021/12/19 13:53:31;;;;;;;21.60;4.37;;;7.60;55.20;;;;;;4978997;28;20023;-80
2021/12/19 13:56:10;;;;;;;12.13;5.00;;;7.60;55.50;;;;;;4985568;28;20506;-81
2021/12/19 13:58:43;;;;;;;11.07;4.10;;;7.60;55.70;;;;;;4970668;28;20034;-80
2021/12/19 14:01:16;;;;;;;12.17;4.73;;;7.60;56.00;;;;;;4989091;28;20529;-80
2021/12/19 14:03:43;;;;;;;9.47;4.67;;;7.50;56.00;;;;;;4990261;28;20482;-80
2021/12/19 14:06:10;;;;;;;9.37;4.90;;;7.50;56.40;;;;;;4986594;28;20034;-79
2021/12/19 14:08:37;;;;;;;9.03;4.00;;;7.50;56.30;;;;;;4988164;28;20026;-80